Time;durP1;ratioP1;P1;durP2;ratioP2;P2;SDS_P1;SDS_P2;PMS_P1;PMS_P2;Temp;Humidity;BMP_temperature;BMP_pressure;BME280_temperature;BME280_humidity;BME280_pressure;Samples;Min_cycle;Max_cycle;Signal;HPM_P1;HPM_P2
2022/09/22 00:01:10;;;;;;;;;;;;;;;8.20;91.27;101074.13;5112659;28;20107;-78
2022/09/22 00:03:38;;;;;;;5.13;2.20;;;;;;;8.08;91.26;101066.47;5111808;28;19916;-77
2022/09/22 00:06:13;;;;;;;3.72;1.80;;;;;;;7.97;92.08;101060.38;5112159;28;20035;-77
2022/09/22 00:08:41;;;;;;;4.50;2.00;;;;;;;7.91;92.74;101061.56;5093667;28;20024;-77
2022/09/22 00:11:19;;;;;;;5.00;1.90;;;;;;;7.95;92.59;101062.56;5093226;28;20027;-78
2022/09/22 00:13:59;;;;;;;6.32;2.05;;;;;;;7.97;92.20;101060.38;5112230;28;20115;-78
2022/09/22 00:16:38;;;;;;;4.10;2.08;;;;;;;8.01;91.77;101069.53;5111753;28;20020;-77
2022/09/22 00:19:09;;;;;;;3.60;1.58;;;;;;;8.01;91.22;101066.00;5111963;28;20051;-79
2022/09/22 00:21:35;;;;;;;5.88;2.20;;;;;;;8.00;91.53;101054.34;5093478;28;20020;-79
2022/09/22 00:24:02;;;;;;;4.72;1.60;;;;;;;8.00;91.24;101058.97;5111887;28;20027;-79
2022/09/22 00:26:29;;;;;;;3.50;1.70;;;;;;;8.03;90.82;101067.31;5112103;28;20027;-79
2022/09/22 00:28:55;;;;;;;4.32;1.70;;;;;;;8.07;90.78;101059.44;5111550;28;20026;-79
2022/09/22 00:31:23;;;;;;;4.28;1.70;;;;;;;8.02;90.58;101057.56;5111858;28;20027;-79
2022/09/22 00:33:50;;;;;;;5.20;1.50;;;;;;;7.96;90.67;101053.34;5093285;28;20404;-79
2022/09/22 00:36:17;;;;;;;3.00;1.42;;;;;;;7.97;91.08;101060.38;5111467;28;20016;-79
2022/09/22 00:38:43;;;;;;;6.32;2.20;;;;;;;7.89;91.76;101058.31;5111857;28;20039;-79
2022/09/22 00:41:18;;;;;;;6.30;1.75;;;;;;;7.95;91.46;101062.56;5092867;28;20059;-79
2022/09/22 00:43:47;;;;;;;4.90;1.60;;;;;;;7.92;91.53;101052.31;5111412;28;20391;-79
2022/09/22 00:46:24;;;;;;;4.15;1.85;;;;;;;7.84;92.31;101055.69;5111775;28;20034;-79
2022/09/22 00:49:08;;;;;;;8.25;2.20;;;;;;;7.77;92.53;101058.78;5111760;28;20024;-79
2022/09/22 00:51:37;;;;;;;4.50;2.00;;;;;;;7.77;92.99;101047.94;5111391;28;20023;-79
2022/09/22 00:54:08;;;;;;;4.13;1.58;;;;;;;7.73;92.92;101051.53;5114642;28;20057;-77
2022/09/22 00:56:42;;;;;;;4.88;1.95;;;;;;;7.69;93.46;101048.56;5115168;28;20433;-80
2022/09/22 00:59:13;;;;;;;5.63;2.30;;;;;;;7.70;93.16;101046.66;5115343;28;20051;-79
2022/09/22 01:01:39;;;;;;;4.30;1.75;;;;;;;7.78;92.62;101046.03;5097366;28;20054;-79
2022/09/22 01:04:05;;;;;;;7.18;2.63;;;;;;;7.84;92.27;101039.41;5115161;28;20527;-79
2022/09/22 01:06:32;;;;;;;4.80;1.75;;;;;;;7.85;91.89;101041.81;5114754;28;20050;-79
2022/09/22 01:08:59;;;;;;;6.97;1.58;;;;;;;7.88;91.69;101040.44;5115370;28;20020;-79
2022/09/22 01:11:25;;;;;;;4.35;1.80;;;;;;;7.84;91.92;101039.41;5114679;28;20023;-79
2022/09/22 01:13:59;;;;;;;6.22;1.98;;;;;;;7.87;91.60;101033.41;5114646;28;20024;-77
2022/09/22 01:17:03;;;;;;;4.68;2.15;;;;;;;7.84;91.63;101034.78;5114912;28;20043;-77
2022/09/22 01:19:52;;;;;;;4.65;1.40;;;;;;;7.91;90.92;101029.03;5096544;28;20047;-77
2022/09/22 01:22:45;;;;;;;4.65;1.90;;;;;;;7.99;90.62;101025.63;5096384;28;20031;-79
2022/09/22 01:25:29;;;;;;;3.22;1.35;;;;;;;8.01;90.23;101028.03;5115034;28;20041;-79
2022/09/22 01:28:14;;;;;;;4.57;2.00;;;;;;;7.99;90.29;101022.91;5096247;28;20034;-77
2022/09/22 01:30:46;;;;;;;5.65;1.80;;;;;;;7.90;90.63;101021.19;5096294;28;20022;-79
2022/09/22 01:33:24;;;;;;;4.72;1.70;;;;;;;7.93;90.63;101021.38;5114320;28;20116;-80
2022/09/22 01:36:14;;;;;;;5.03;1.63;;;;;;;7.97;90.12;101014.28;5114836;28;20083;-79
2022/09/22 01:38:47;;;;;;;5.07;1.73;;;;;;;7.82;90.61;101017.22;5096120;28;20111;-79
2022/09/22 01:41:33;;;;;;;4.60;1.83;;;;;;;7.89;91.63;101009.50;5114507;28;20043;-77
2022/09/22 01:44:08;;;;;;;5.45;1.60;;;;;;;7.98;91.22;101012.38;5095757;28;20044;-79
2022/09/22 01:46:41;;;;;;;3.67;1.50;;;;;;;7.89;91.38;101009.50;5114365;28;20030;-79
2022/09/22 01:49:10;;;;;;;4.53;1.67;;;;;;;8.05;90.95;101008.16;5114411;28;20024;-79
2022/09/22 01:51:43;;;;;;;5.10;1.42;;;;;;;8.24;89.74;101002.72;5096100;28;20023;-79
2022/09/22 01:54:17;;;;;;;4.05;1.70;;;;;;;8.32;89.00;101012.88;5095708;28;20146;-79
2022/09/22 01:56:48;;;;;;;3.17;1.30;;;;;;;8.28;89.53;101011.06;5079091;28;20087;-79
2022/09/22 01:59:16;;;;;;;3.28;1.42;;;;;;;8.23;89.74;101003.00;5114013;28;20106;-79
2022/09/22 02:01:50;;;;;;;4.15;1.70;;;;;;;8.17;89.53;101005.00;5114396;28;20015;-79
2022/09/22 02:04:25;;;;;;;4.80;1.48;;;;;;;8.24;89.12;100999.19;5095414;28;20020;-79
2022/09/22 02:06:59;;;;;;;3.25;1.40;;;;;;;8.36;88.74;100992.22;5113918;28;20027;-80
2022/09/22 02:09:28;;;;;;;3.85;1.70;;;;;;;8.38;88.44;100994.63;5114264;28;20066;-79
2022/09/22 02:11:54;;;;;;;3.47;1.40;;;;;;;8.42;88.12;100990.22;5096228;28;20046;-79
2022/09/22 02:14:19;;;;;;;3.15;1.25;;;;;;;8.40;88.55;100997.88;5095374;28;20024;-80
2022/09/22 02:16:45;;;;;;;5.40;1.60;;;;;;;8.39;88.70;100985.38;5113550;28;20035;-79
2022/09/22 02:19:12;;;;;;;3.42;1.40;;;;;;;8.48;87.71;100993.66;5113656;28;20261;-80
2022/09/22 02:21:39;;;;;;;3.63;1.50;;;;;;;8.63;87.45;100991.47;5114088;28;20130;-80
2022/09/22 02:24:04;;;;;;;;;;;;;;;8.46;87.87;100999.38;5114148;28;20111;-80
2022/09/22 02:26:34;;;;;;;3.10;1.20;;;;;;;8.47;88.48;100992.84;5113251;28;19947;-80
2022/09/22 02:29:06;;;;;;;2.85;1.17;;;;;;;8.56;88.17;100990.22;5113707;28;20072;-79
2022/09/22 02:31:35;;;;;;;3.53;1.50;;;;;;;8.51;88.28;100985.69;5113462;28;20027;-80
2022/09/22 02:34:03;;;;;;;3.78;1.38;;;;;;;8.64;87.58;100990.34;5113383;28;20031;-79
2022/09/22 02:36:45;;;;;;;11.00;1.60;;;;;;;8.59;87.84;100990.47;5113291;28;20031;-80
2022/09/22 02:39:19;;;;;;;3.58;1.30;;;;;;;8.66;87.33;100987.34;5113164;28;20020;-79
2022/09/22 02:42:20;;;;;;;3.30;1.20;;;;;;;8.72;87.39;100994.25;5113143;28;20037;-80
2022/09/22 02:44:48;;;;;;;4.70;1.70;;;;;;;8.85;86.34;100977.19;5113032;28;20384;-79
2022/09/22 02:48:02;;;;;;;3.08;1.20;;;;;;;8.90;85.60;100978.97;5094840;28;20023;-78
2022/09/22 02:50:29;;;;;;;3.63;1.35;;;;;;;8.93;85.09;100983.84;5071533;28;20035;-79
2022/09/22 02:53:02;;;;;;;4.80;1.70;;;;;;;8.77;85.59;100975.19;5113092;28;20023;-79
2022/09/22 02:55:27;;;;;;;5.55;1.40;;;;;;;8.66;86.66;100979.19;5113415;28;20023;-79
2022/09/22 02:57:53;;;;;;;4.50;1.20;;;;;;;8.50;87.23;100975.94;5112877;28;20126;-79
2022/09/22 03:00:19;;;;;;;4.72;1.70;;;;;;;8.47;87.76;100975.75;5112727;28;20027;-79
2022/09/22 03:02:44;;;;;;;;;;;;;;;8.34;87.89;100966.47;5113047;28;20480;-79
2022/09/22 03:05:10;;;;;;;4.50;1.80;;;;;;;8.37;88.59;100971.31;5113069;28;19915;-79
2022/09/22 03:07:36;;;;;;;6.13;1.50;;;;;;;8.35;88.03;100970.78;5112648;28;20091;-79
2022/09/22 03:10:01;;;;;;;4.60;1.50;;;;;;;8.24;88.82;100972.06;5094399;28;20186;-79
2022/09/22 03:12:26;;;;;;;3.47;1.40;;;;;;;8.27;88.69;100966.03;5094264;28;20273;-79
2022/09/22 03:14:52;;;;;;;4.93;1.60;;;;;;;8.19;88.67;100969.44;5093886;28;20073;-79
2022/09/22 03:17:20;;;;;;;4.25;1.60;;;;;;;8.33;88.80;100967.56;5112294;28;20070;-79
2022/09/22 03:19:45;;;;;;;3.58;1.60;;;;;;;8.31;88.04;100959.72;5094090;28;20459;-79
2022/09/22 03:22:10;;;;;;;4.13;1.77;;;;;;;8.39;88.47;100959.03;5112704;28;20065;-79
2022/09/22 03:24:36;;;;;;;5.87;1.43;;;;;;;8.35;87.52;100962.66;5094024;28;20031;-79
2022/09/22 03:27:01;;;;;;;5.23;1.90;;;;;;;8.30;87.96;100960.00;5112437;28;20033;-79
2022/09/22 03:29:26;;;;;;;4.00;1.33;;;;;;;8.23;88.29;100959.59;5077350;28;20702;-79
2022/09/22 03:31:53;;;;;;;3.37;1.20;;;;;;;8.10;88.66;100956.56;5112289;28;20356;-79
2022/09/22 03:34:18;;;;;;;4.45;1.65;;;;;;;8.35;87.85;100960.75;5093881;28;20026;-80
2022/09/22 03:36:44;;;;;;;5.67;1.83;;;;;;;8.34;87.65;100956.44;5112427;28;20427;-80
2022/09/22 03:39:09;;;;;;;5.18;1.73;;;;;;;8.31;88.05;100961.63;5093834;28;20107;-80
2022/09/22 03:41:36;;;;;;;5.50;1.90;;;;;;;8.14;88.80;100956.75;5112079;28;20032;-79
2022/09/22 03:44:01;;;;;;;5.20;2.00;;;;;;;8.07;89.19;100957.16;5093659;28;20099;-80
2022/09/22 03:46:27;;;;;;;4.75;1.60;;;;;;;8.07;88.74;100945.50;5112154;28;20020;-80
2022/09/22 03:48:54;;;;;;;5.77;1.40;;;;;;;8.12;88.29;100946.22;5112305;28;20036;-79
2022/09/22 03:51:20;;;;;;;4.40;1.58;;;;;;;8.22;88.11;100947.13;5093833;28;20027;-79
2022/09/22 03:53:45;;;;;;;3.83;1.63;;;;;;;8.04;88.64;100946.88;5112588;28;20031;-78
2022/09/22 03:56:13;;;;;;;3.57;1.40;;;;;;;7.97;88.45;100949.19;5112603;28;20150;-79
2022/09/22 03:58:41;;;;;;;4.28;1.30;;;;;;;7.98;88.63;100953.50;5093905;28;20039;-80
2022/09/22 04:01:07;;;;;;;3.38;1.20;;;;;;;8.10;88.15;100937.56;5112235;28;20076;-80
2022/09/22 04:03:34;;;;;;;;;;;;;;;8.10;87.71;100940.28;5094238;28;20015;-80
2022/09/22 04:06:00;;;;;;;3.42;1.30;;;;;;;8.04;88.62;100940.66;5112128;28;20379;-80
2022/09/22 04:08:25;;;;;;;5.10;1.77;;;;;;;8.29;86.42;100937.50;5093409;28;20037;-80
2022/09/22 04:10:50;;;;;;;5.15;1.83;;;;;;;8.26;86.88;100940.00;5111723;28;20030;-79
2022/09/22 04:13:16;;;;;;;4.23;1.70;;;;;;;8.04;87.07;100930.59;5093442;28;20115;-80
2022/09/22 04:15:44;;;;;;;6.25;1.90;;;;;;;7.91;88.08;100931.41;5093723;28;20047;-79
2022/09/22 04:18:11;;;;;;;6.88;1.90;;;;;;;7.71;88.40;100927.09;5093448;28;20023;-80
2022/09/22 04:20:38;;;;;;;4.63;1.48;;;;;;;7.76;89.16;100927.03;5111889;28;20115;-80
2022/09/22 04:23:03;;;;;;;6.00;1.85;;;;;;;7.80;88.15;100930.75;5111683;28;20058;-79
2022/09/22 04:25:30;;;;;;;4.30;1.40;;;;;;;7.66;88.67;100929.09;5112094;28;20016;-79
2022/09/22 04:27:56;;;;;;;5.97;1.70;;;;;;;7.44;89.20;100930.50;5113473;28;20024;-80
2022/09/22 04:30:21;;;;;;;4.93;1.47;;;;;;;7.46;90.13;100928.31;5116117;28;20046;-79
2022/09/22 04:32:46;;;;;;;2.87;1.83;;;;;;;7.49;90.31;100929.63;5097645;28;20028;-79
2022/09/22 04:35:11;;;;;;;6.80;1.27;;;;;;;7.38;91.01;100938.97;5115740;28;20089;-79
2022/09/22 04:37:37;;;;;;;3.30;1.60;;;;;;;7.35;90.52;100934.16;5115513;28;20020;-79
2022/09/22 04:40:03;;;;;;;3.67;1.20;;;;;;;7.34;91.00;100927.13;5115423;28;20024;-79
2022/09/22 04:42:28;;;;;;;3.90;1.50;;;;;;;7.37;90.22;100929.25;5114961;28;20118;-79
2022/09/22 04:44:56;;;;;;;2.37;1.00;;;;;;;7.38;90.54;100931.66;5114455;28;20050;-79
2022/09/22 04:47:21;;;;;;;4.20;1.67;;;;;;;7.46;90.06;100931.00;5097084;28;20539;-79
2022/09/22 04:49:46;;;;;;;4.90;1.37;;;;;;;7.40;89.65;100931.38;5096989;28;20024;-79
2022/09/22 04:52:14;;;;;;;3.47;1.25;;;;;;;7.40;90.88;100934.91;5115399;28;20269;-79
2022/09/22 04:54:39;;;;;;;4.47;1.58;;;;;;;7.40;90.15;100932.19;5114975;28;20031;-79
2022/09/22 04:57:05;;;;;;;4.27;1.73;;;;;;;7.46;89.90;100930.19;5114942;28;20023;-79
2022/09/22 04:59:30;;;;;;;5.33;1.50;;;;;;;7.53;89.68;100936.84;5096613;28;20088;-79
2022/09/22 05:01:55;;;;;;;4.63;1.50;;;;;;;7.52;89.47;100929.81;5114889;28;20442;-79
2022/09/22 05:04:22;;;;;;;3.30;1.30;;;;;;;7.54;89.87;100935.75;5114963;28;20030;-79
2022/09/22 05:06:47;;;;;;;4.60;1.80;;;;;;;7.53;89.72;100933.34;5115061;28;20028;-79
2022/09/22 05:09:13;;;;;;;19.17;2.00;;;;;;;7.61;89.67;100932.69;5081106;28;20088;-79
2022/09/22 05:11:38;;;;;;;5.43;1.90;;;;;;;7.78;88.61;100940.28;5096236;28;20023;-78
2022/09/22 05:14:03;;;;;;;4.73;1.60;;;;;;;7.57;88.65;100936.28;5115086;28;20413;-79
2022/09/22 05:16:30;;;;;;;3.73;1.33;;;;;;;7.53;89.28;100931.44;5096286;28;20115;-79
2022/09/22 05:18:55;;;;;;;3.80;1.40;;;;;;;7.56;88.88;100938.19;5114915;28;20349;-78
2022/09/22 05:21:21;;;;;;;4.25;1.40;;;;;;;7.50;89.27;100942.06;5114737;28;20054;-78
2022/09/22 05:23:46;;;;;;;3.27;1.37;;;;;;;7.52;89.33;100937.94;5114876;28;20380;-77
2022/09/22 05:26:13;;;;;;;10.83;3.73;;;;;;;7.39;89.52;100937.88;5096484;28;20110;-79
2022/09/22 05:28:38;;;;;;;3.22;1.35;;;;;;;7.56;88.26;100935.47;5114643;28;20028;-79
2022/09/22 05:31:05;;;;;;;3.35;1.58;;;;;;;7.58;88.38;100941.41;5114878;28;20042;-80
2022/09/22 05:33:30;;;;;;;4.07;1.75;;;;;;;7.52;87.88;100935.25;5114386;28;20039;-79
2022/09/22 05:35:58;;;;;;;5.07;1.77;;;;;;;7.46;88.47;100944.56;5096136;28;20031;-78
2022/09/22 05:38:23;;;;;;;5.13;1.92;;;;;;;7.39;88.96;100949.56;5114044;28;20322;-78
2022/09/22 05:40:49;;;;;;;3.13;1.30;;;;;;;7.38;91.43;100945.19;5114238;28;20110;-79
2022/09/22 05:43:14;;;;;;;3.33;1.30;;;;;;;7.37;90.63;100943.59;5114437;28;20020;-78
2022/09/22 05:45:42;;;;;;;3.53;1.60;;;;;;;7.44;90.93;100943.25;5114099;28;20522;-79
2022/09/22 05:48:07;;;;;;;3.70;1.35;;;;;;;7.43;90.92;100942.44;5114176;28;20103;-78
2022/09/22 05:50:33;;;;;;;4.07;1.53;;;;;;;7.47;90.24;100942.66;5114241;28;20030;-80
2022/09/22 05:53:07;;;;;;;4.43;1.60;;;;;;;7.45;90.66;100944.84;5113845;28;20039;-78
2022/09/22 05:55:34;;;;;;;4.22;1.42;;;;;;;7.45;90.71;100944.84;5113943;28;20026;-78
2022/09/22 05:58:00;;;;;;;4.40;1.63;;;;;;;7.55;91.22;100936.56;5096256;28;20074;-78
2022/09/22 06:00:26;;;;;;;3.95;1.40;;;;;;;7.57;90.45;100942.50;5095698;28;20488;-78
2022/09/22 06:02:52;;;;;;;5.38;1.65;;;;;;;7.54;90.74;100938.47;5113826;28;20098;-79
2022/09/22 06:05:17;;;;;;;5.10;1.58;;;;;;;7.77;91.88;100942.19;5113832;28;20094;-78
2022/09/22 06:07:43;;;;;;;4.68;1.77;;;;;;;7.81;89.45;100947.81;5113611;28;20039;-78
2022/09/22 06:10:11;;;;;;;2.97;1.07;;;;;;;7.83;90.81;100945.63;5095259;28;20078;-78
2022/09/22 06:12:37;;;;;;;4.90;1.88;;;;;;;8.00;89.29;100945.88;5095108;28;20772;-78
2022/09/22 06:15:04;;;;;;;4.53;1.83;;;;;;;7.86;89.54;100945.00;5113547;28;20435;-78
2022/09/22 06:17:30;;;;;;;3.72;1.40;;;;;;;7.99;90.25;100955.09;5113470;28;20061;-78
2022/09/22 06:19:55;;;;;;;3.72;1.48;;;;;;;7.93;88.78;100945.47;5113664;28;20107;-78
2022/09/22 06:22:22;;;;;;;5.55;1.80;;;;;;;8.00;90.90;100951.28;5113558;28;20441;-79
2022/09/22 06:24:49;;;;;;;3.90;1.52;;;;;;;8.21;90.73;100951.75;5113905;28;20071;-79
2022/09/22 06:27:15;;;;;;;4.25;1.73;;;;;;;8.09;89.39;100954.16;5113680;28;20160;-78
2022/09/22 06:29:41;;;;;;;3.88;1.80;;;;;;;8.32;89.42;100952.38;5094717;28;20495;-79
2022/09/22 06:32:09;;;;;;;5.15;1.70;;;;;;;8.28;87.99;100943.22;5094907;28;20028;-79
2022/09/22 06:34:36;;;;;;;5.85;1.55;;;;;;;8.39;89.17;100945.47;5094958;28;20023;-79
2022/09/22 06:37:03;;;;;;;3.50;1.55;;;;;;;8.68;87.51;100944.41;5113467;28;20050;-80
2022/09/22 06:39:28;;;;;;;3.25;1.58;;;;;;;8.63;87.00;100947.22;5113911;28;20027;-79
2022/09/22 06:41:56;;;;;;;3.50;1.75;;;;;;;8.78;87.58;100949.63;5113981;28;20142;-79
2022/09/22 06:44:21;;;;;;;5.10;1.53;;;;;;;8.76;86.89;100945.63;5113234;28;20135;-79
2022/09/22 06:46:47;;;;;;;4.57;1.85;;;;;;;8.81;86.36;100948.22;5095363;28;20093;-79
2022/09/22 06:49:12;;;;;;;4.17;1.57;;;;;;;8.90;86.70;100957.25;5095040;28;20062;-78
2022/09/22 06:51:39;;;;;;;5.07;1.77;;;;;;;9.10;86.11;100947.91;5112161;28;20050;-79
2022/09/22 06:54:05;;;;;;;5.82;1.70;;;;;;;9.19;85.76;100949.56;5113238;28;20064;-80
2022/09/22 06:56:41;;;;;;;4.95;1.52;;;;;;;9.29;85.67;100949.38;5095135;28;20118;-79
2022/09/22 06:59:09;;;;;;;3.85;1.50;;;;;;;9.35;84.66;100958.19;5113560;28;20032;-79
2022/09/22 07:01:34;;;;;;;5.68;2.13;;;;;;;9.61;84.20;100953.81;5094921;28;20482;-79
2022/09/22 07:04:00;;;;;;;4.18;1.70;;;;;;;9.60;85.00;100949.47;5113045;28;20027;-78
2022/09/22 07:06:25;;;;;;;5.20;1.90;;;;;;;9.80;83.16;100952.81;5113309;28;20033;-81
2022/09/22 07:08:51;;;;;;;6.17;1.60;;;;;;;9.95;83.46;100947.00;5112949;28;20472;-79
2022/09/22 07:11:18;;;;;;;4.80;1.83;;;;;;;9.97;82.74;100957.59;5094707;28;20035;-78
2022/09/22 07:13:45;;;;;;;3.75;1.77;;;;;;;10.11;81.92;100952.88;5113555;28;20023;-78
2022/09/22 07:16:16;;;;;;;4.13;1.80;;;;;;;10.26;81.21;100951.72;5113147;28;20133;-79
2022/09/22 07:18:47;;;;;;;5.10;2.15;;;;;;;10.38;81.76;100947.28;5112577;28;20407;-79
2022/09/22 07:21:15;;;;;;;4.47;1.90;;;;;;;10.50;81.25;100949.41;5094140;28;20024;-78
2022/09/22 07:23:42;;;;;;;3.55;1.63;;;;;;;10.58;80.86;100950.56;5094430;28;20024;-79
2022/09/22 07:26:12;;;;;;;4.18;1.60;;;;;;;10.63;80.20;100953.16;5112972;28;20027;-79
2022/09/22 07:28:37;;;;;;;14.38;4.28;;;;;;;10.77;80.46;100940.25;5114791;28;20028;-79
2022/09/22 07:31:09;;;;;;;5.30;1.98;;;;;;;10.94;79.67;100947.66;5115496;28;20024;-80
2022/09/22 07:33:38;;;;;;;7.20;2.17;;;;;;;11.23;79.16;100949.78;5097271;28;20042;-80
2022/09/22 07:36:10;;;;;;;3.97;1.50;;;;;;;11.42;78.05;100947.56;5098027;28;20024;-80
2022/09/22 07:38:38;;;;;;;4.65;1.73;;;;;;;11.39;77.48;100943.53;5121328;28;20016;-81
2022/09/22 07:41:06;;;;;;;4.25;1.70;;;;;;;11.39;77.85;100940.81;5114714;28;20024;-80
2022/09/22 07:45:11;;;;;;;4.15;1.35;;;;;;;11.42;76.93;100950.28;5115041;28;20031;-82
2022/09/22 07:46:47;;;;;;;2.83;1.10;;;;;;;11.77;75.66;100942.13;5115157;28;20027;-81
2022/09/22 07:49:16;;;;;;;3.67;1.40;;;;;;;11.78;75.72;100938.28;5100120;28;20031;-82
2022/09/22 07:51:42;;;;;;;3.35;1.27;;;;;;;12.17;73.58;100937.25;5098238;28;20030;-82
2022/09/22 07:54:07;;;;;;;;;;;;;;;12.16;73.38;100939.19;5114814;28;20022;-82
2022/09/22 07:56:35;;;;;;;2.45;0.95;;;;;;;12.28;72.78;100942.06;5096074;28;19993;-80
2022/09/22 07:59:06;;;;;;;4.75;1.35;;;;;;;12.36;72.30;100937.69;5114730;28;20081;-79
2022/09/22 08:01:31;;;;;;;2.17;0.90;;;;;;;12.56;71.07;100938.88;5080403;28;20042;-80
2022/09/22 08:03:58;;;;;;;7.07;1.08;;;;;;;12.57;70.46;100949.47;5100369;28;20480;-80
2022/09/22 08:06:23;;;;;;;;;;;;;;;12.63;69.93;100942.72;5100802;28;20039;-80
2022/09/22 08:08:55;;;;;;;2.28;0.80;;;;;;;13.07;67.71;100935.06;5100232;28;19908;-80
2022/09/22 08:11:22;;;;;;;4.88;1.50;;;;;;;13.08;68.08;100944.09;5099767;28;20028;-80
2022/09/22 08:13:59;;;;;;;3.30;1.10;;;;;;;13.08;68.48;100939.41;5117087;28;20024;-81
2022/09/22 08:16:30;;;;;;;2.70;0.90;;;;;;;13.25;67.08;100936.59;5100499;28;20030;-81
2022/09/22 08:18:57;;;;;;;2.75;0.82;;;;;;;13.43;66.19;100939.19;5099292;28;20045;-80
2022/09/22 08:21:34;;;;;;;2.28;0.82;;;;;;;13.55;66.38;100936.53;5118213;28;20037;-81
2022/09/22 08:24:00;;;;;;;2.35;0.70;;;;;;;13.59;65.63;100942.13;5117819;28;20023;-80
2022/09/22 08:26:25;;;;;;;3.60;0.95;;;;;;;13.58;66.43;100933.13;5117794;28;20027;-79
2022/09/22 08:28:52;;;;;;;4.30;1.00;;;;;;;13.73;65.72;100935.25;5082673;28;20088;-80
2022/09/22 08:31:21;;;;;;;2.60;0.88;;;;;;;13.69;66.33;100936.25;5118021;28;20514;-79
2022/09/22 08:33:48;;;;;;;1.48;0.70;;;;;;;13.91;65.52;100935.09;5098503;28;20248;-80
2022/09/22 08:36:14;;;;;;;2.15;1.00;;;;;;;14.07;62.02;100933.31;5098270;28;20023;-79
2022/09/22 08:38:39;;;;;;;;;;;;;;;13.98;61.72;100925.22;5117919;28;20495;-80
2022/09/22 08:41:28;;;;;;;1.40;0.50;;;;;;;14.10;60.71;100927.94;5098475;28;19911;-80
2022/09/22 08:44:19;;;;;;;1.98;0.70;;;;;;;14.15;61.36;100933.22;5115524;28;20098;-78
2022/09/22 08:46:51;;;;;;;5.50;2.05;;;;;;;14.23;59.29;100942.47;5116691;28;20031;-79
2022/09/22 08:52:30;;;;;;;1.90;0.73;;;;;;;14.62;57.10;100938.38;5116801;28;20030;-79
2022/09/22 08:54:58;;;;;;;1.23;0.65;;;;;;;14.61;58.54;100939.50;5115500;28;20023;-80
2022/09/22 08:57:55;;;;;;;1.08;0.47;;;;;;;14.80;56.67;100941.69;5097062;28;20032;-79
2022/09/22 09:00:23;;;;;;;2.23;0.70;;;;;;;14.65;56.86;100929.44;5097085;28;20042;-81
2022/09/22 09:03:15;;;;;;;1.85;0.60;;;;;;;14.71;56.21;100936.28;5097331;28;20034;-81
2022/09/22 09:05:58;;;;;;;2.75;1.00;;;;;;;14.81;56.14;100942.47;5115691;28;20127;-81
2022/09/22 09:09:00;;;;;;;2.35;0.80;;;;;;;14.75;55.75;100948.16;5115545;28;20472;-80
2022/09/22 09:11:41;;;;;;;2.23;0.60;;;;;;;14.89;54.67;100936.88;5115689;28;20038;-78
2022/09/22 09:14:32;;;;;;;1.60;0.60;;;;;;;14.90;54.99;100943.16;5114542;28;20043;-79
2022/09/22 09:17:03;;;;;;;1.98;0.70;;;;;;;14.99;55.32;100946.59;5097284;28;20023;-80
2022/09/22 09:19:42;;;;;;;1.48;0.50;;;;;;;15.22;54.20;100944.94;5097074;28;20027;-79
2022/09/22 09:22:26;;;;;;;0.98;0.60;;;;;;;15.29;54.60;100939.69;5115363;28;20099;-80
2022/09/22 09:25:22;;;;;;;2.13;0.68;;;;;;;15.38;53.83;100941.47;5096296;28;20028;-80
2022/09/22 09:27:52;;;;;;;1.38;0.60;;;;;;;15.35;53.42;100942.97;5096494;28;20108;-80
2022/09/22 09:30:20;;;;;;;2.78;0.98;;;;;;;15.40;53.95;100939.19;5096285;28;20085;-79
2022/09/22 09:32:56;;;;;;;2.20;0.90;;;;;;;15.58;53.96;100937.75;5096557;28;20028;-80
2022/09/22 09:35:31;;;;;;;2.40;0.80;;;;;;;15.56;54.04;100938.09;5096629;28;20106;-79
2022/09/22 09:37:58;;;;;;;1.63;0.70;;;;;;;15.62;52.72;100930.47;5114721;28;20092;-79
2022/09/22 09:40:24;;;;;;;1.85;0.80;;;;;;;15.62;51.71;100933.22;5096334;28;20023;-80
2022/09/22 09:42:54;;;;;;;;;;;;;;;15.47;51.28;100934.72;5115051;28;20434;-82
2022/09/22 09:45:24;;;;;;;2.55;0.70;;;;;;;15.58;51.50;100926.78;5114502;28;20286;-81
2022/09/22 09:48:31;;;;;;;1.25;0.50;;;;;;;15.45;52.71;100931.53;5113658;28;20036;-80
2022/09/22 09:51:02;;;;;;;2.00;0.77;;;;;;;15.66;51.74;100925.88;5066161;28;20027;-80
2022/09/22 09:53:33;;;;;;;1.67;0.70;;;;;;;15.70;51.66;100925.97;5115178;28;20017;-79
2022/09/22 09:56:03;;;;;;;2.55;0.80;;;;;;;15.62;51.62;100920.28;5115775;28;20051;-80
2022/09/22 10:01:18;;;;;;;3.08;0.60;;;;;;;15.97;50.64;100916.94;5114695;28;20030;-79
2022/09/22 10:03:53;;;;;;;2.05;0.90;;;;;;;16.02;49.98;100907.63;5114850;28;20027;-83
2022/09/22 10:06:24;;;;;;;1.55;0.70;;;;;;;16.09;51.93;100910.53;5095917;28;20046;-80
2022/09/22 10:08:50;;;;;;;2.33;0.70;;;;;;;16.02;50.59;100904.88;5096680;28;20036;-80
2022/09/22 10:11:30;;;;;;;3.83;0.70;;;;;;;16.01;50.60;100897.78;5095778;28;20083;-80
2022/09/22 10:13:56;;;;;;;0.77;0.50;;;;;;;16.28;49.83;100905.16;5113893;28;20018;-80
2022/09/22 10:16:24;;;;;;;1.38;0.60;;;;;;;16.19;48.35;100897.09;5095585;28;20039;-80
2022/09/22 10:19:21;;;;;;;1.42;0.43;;;;;;;15.95;49.71;100895.28;5095180;28;20346;-80
2022/09/22 10:21:47;;;;;;;2.13;0.70;;;;;;;16.08;49.33;100897.97;5087860;28;20401;-79
2022/09/22 10:24:29;;;;;;;1.55;0.60;;;;;;;16.06;49.00;100881.84;5114164;28;20087;-80
2022/09/22 10:26:56;;;;;;;1.65;0.68;;;;;;;16.04;48.78;100877.84;5114281;28;20020;-80
2022/09/22 10:29:23;;;;;;;1.63;0.60;;;;;;;15.90;48.73;100884.56;5114983;28;20026;-82
2022/09/22 10:32:02;;;;;;;1.52;0.60;;;;;;;15.93;49.17;100883.06;5114250;28;20126;-80
2022/09/22 10:34:48;;;;;;;1.88;0.75;;;;;;;16.33;47.21;100877.44;5095706;28;20028;-81
2022/09/22 10:37:17;;;;;;;1.98;0.75;;;;;;;16.43;47.60;100884.31;5114636;28;20027;-80
2022/09/22 10:39:49;;;;;;;1.73;0.52;;;;;;;16.61;46.98;100879.25;5114075;28;20153;-79
2022/09/22 10:42:26;;;;;;;2.80;0.70;;;;;;;16.31;47.91;100877.00;5096141;28;20307;-81
2022/09/22 10:45:02;;;;;;;;;;;;;;;16.46;48.78;100876.19;5114070;28;20040;-80
2022/09/22 10:47:41;;;;;;;1.92;0.68;;;;;;;16.36;46.83;100879.47;5078558;28;20144;-79
2022/09/22 10:50:29;;;;;;;1.23;0.60;;;;;;;16.49;47.73;100878.22;5113383;28;20505;-80
2022/09/22 10:53:04;;;;;;;4.72;0.80;;;;;;;16.76;46.91;100879.25;5094268;28;20122;-81
2022/09/22 10:55:54;;;;;;;0.93;0.50;;;;;;;16.68;46.50;100877.50;5113373;28;20396;-81
2022/09/22 10:58:26;;;;;;;5.28;1.88;;;;;;;16.59;48.14;100878.81;5113582;28;20016;-79
2022/09/22 11:01:05;;;;;;;2.05;0.80;;;;;;;16.68;46.13;100877.50;5094877;28;20375;-79
2022/09/22 11:03:51;;;;;;;3.28;0.70;;;;;;;16.78;46.25;100878.91;5112897;28;20103;-81
2022/09/22 11:13:05;;;;;;;2.70;0.70;;;;;;;17.23;47.28;100866.53;5114941;28;20058;-82
2022/09/22 11:15:58;;;;;;;2.22;0.70;;;;;;;17.19;46.07;100857.41;5115026;28;20027;-81
2022/09/22 11:18:54;;;;;;;1.83;0.60;;;;;;;16.69;47.12;100859.06;5095020;28;20035;-81
2022/09/22 11:21:26;;;;;;;1.85;0.73;;;;;;;16.75;47.57;100855.66;5092409;28;20068;-81
2022/09/22 11:24:14;;;;;;;3.10;0.80;;;;;;;16.90;46.98;100862.28;5095022;28;20031;-81
2022/09/22 11:26:57;;;;;;;1.67;0.65;;;;;;;17.12;45.49;100858.03;5112550;28;20092;-80
2022/09/22 11:29:50;;;;;;;1.27;0.60;;;;;;;17.28;45.24;100861.53;5112689;28;20069;-83
2022/09/22 11:32:40;;;;;;;2.83;1.48;;;;;;;16.94;46.26;100857.66;5095220;28;20134;-80
2022/09/22 11:35:27;;;;;;;1.90;0.80;;;;;;;17.43;44.21;100851.59;5113753;28;20493;-82
2022/09/22 11:38:16;;;;;;;2.90;0.85;;;;;;;17.21;45.69;100847.63;5113621;28;20068;-80
2022/09/22 11:40:59;;;;;;;3.00;0.80;;;;;;;17.14;45.60;100834.53;5095377;28;20468;-80
2022/09/22 11:43:43;;;;;;;1.40;0.60;;;;;;;16.96;45.75;100835.28;5113489;28;20464;-82
2022/09/22 11:46:21;;;;;;;1.40;0.60;;;;;;;17.24;45.86;100826.84;5094876;28;20089;-82
2022/09/22 11:48:52;;;;;;;1.70;0.57;;;;;;;17.22;45.73;100818.16;5094591;28;20114;-83
2022/09/22 11:51:59;;;;;;;1.42;0.68;;;;;;;17.35;46.03;100823.16;5112853;28;20463;-81
2022/09/22 11:54:46;;;;;;;2.30;0.73;;;;;;;17.73;44.86;100833.34;5094331;28;20039;-80
2022/09/22 11:57:18;;;;;;;2.60;1.13;;;;;;;17.71;42.91;100827.41;5114075;28;20118;-81
2022/09/22 11:59:56;;;;;;;2.42;0.90;;;;;;;17.78;43.41;100820.41;5113436;28;20035;-79
2022/09/22 12:02:54;;;;;;;2.13;0.82;;;;;;;17.79;43.53;100811.78;5115108;28;20076;-80
2022/09/22 12:05:37;;;;;;;2.13;0.80;;;;;;;17.35;44.43;100803.88;5095073;28;20024;-80